Time;durP1;ratioP1;P1;durP2;ratioP2;P2;SDS_P1;SDS_P2;PMS_P1;PMS_P2;Temp;Humidity;BMP_temperature;BMP_pressure;BME280_temperature;BME280_humidity;BME280_pressure;Samples;Min_cycle;Max_cycle;Signal;HPM_P1;HPM_P2
2021/05/31 00:01:38;;;;;;;3.95;2.42;;;16.00;63.50;;;;;;5082355;28;27423;-62
2021/05/31 00:04:23;;;;;;;5.28;2.38;;;15.90;63.40;;;;;;5082772;28;27507;-62
2021/05/31 00:07:15;;;;;;;6.88;2.20;;;15.90;63.20;;;;;;5086442;28;27477;-62
2021/05/31 00:09:59;;;;;;;4.45;2.22;;;15.90;63.30;;;;;;5085327;28;27505;-62
2021/05/31 00:12:44;;;;;;;5.60;2.20;;;15.80;63.50;;;;;;5086259;28;27466;-62
2021/05/31 00:15:29;;;;;;;2.65;1.80;;;15.80;63.60;;;;;;5086011;28;27350;-62
2021/05/31 00:18:16;;;;;;;3.15;2.00;;;15.80;63.80;;;;;;5085987;28;27325;-64
2021/05/31 00:21:01;;;;;;;3.53;1.90;;;15.80;63.60;;;;;;5082038;28;27417;-62
2021/05/31 00:23:46;;;;;;;5.45;2.33;;;15.70;64.30;;;;;;5085073;28;27484;-62
2021/05/31 00:26:30;;;;;;;3.80;2.30;;;15.70;64.30;;;;;;5085723;28;27486;-62
2021/05/31 00:29:16;;;;;;;5.30;2.35;;;15.70;64.20;;;;;;5085903;28;27527;-63
2021/05/31 00:32:01;;;;;;;2.85;1.90;;;15.60;64.20;;;;;;5085694;28;27497;-62
2021/05/31 00:34:45;;;;;;;3.95;2.35;;;15.60;64.30;;;;;;5085432;28;27409;-62
2021/05/31 00:37:29;;;;;;;3.92;2.10;;;15.60;64.80;;;;;;5085914;28;27516;-62
2021/05/31 00:40:16;;;;;;;3.35;2.10;;;15.60;64.70;;;;;;5085018;28;27481;-63
2021/05/31 00:43:00;;;;;;;3.40;2.45;;;15.50;64.40;;;;;;5085608;28;27404;-63
2021/05/31 00:45:45;;;;;;;5.28;2.30;;;15.50;64.70;;;;;;5084653;28;27418;-62
2021/05/31 00:48:30;;;;;;;7.22;2.22;;;15.50;64.50;;;;;;5085397;28;27473;-62
2021/05/31 00:51:14;;;;;;;2.38;1.98;;;15.40;64.30;;;;;;5085769;28;27396;-63
2021/05/31 00:53:59;;;;;;;3.78;2.10;;;15.40;64.70;;;;;;5085575;28;27462;-62
2021/05/31 00:56:44;;;;;;;4.40;2.20;;;15.30;64.70;;;;;;5084767;28;27335;-62
2021/05/31 00:59:29;;;;;;;5.03;2.63;;;15.30;65.00;;;;;;5095384;27;27606;-64
2021/05/31 01:02:14;;;;;;;4.47;2.30;;;15.20;65.10;;;;;;5085332;28;26919;-64
2021/05/31 01:04:58;;;;;;;3.17;2.53;;;15.20;65.00;;;;;;5085335;28;27439;-62
2021/05/31 01:07:45;;;;;;;3.67;2.17;;;15.10;65.00;;;;;;5085085;28;27903;-62
2021/05/31 01:10:32;;;;;;;2.33;2.03;;;15.10;65.10;;;;;;5085172;28;27470;-62
2021/05/31 01:13:22;;;;;;;2.45;2.03;;;15.00;65.20;;;;;;5085431;28;27446;-62
2021/05/31 01:16:28;;;;;;;3.38;2.53;;;14.90;65.30;;;;;;5066177;28;27335;-62
2021/05/31 01:19:29;;;;;;;2.97;2.20;;;14.90;65.30;;;;;;5084489;28;27336;-62
2021/05/31 01:22:13;;;;;;;3.58;2.28;;;14.80;65.80;;;;;;5084978;28;27478;-62
2021/05/31 01:25:30;;;;;;;2.08;1.90;;;14.70;65.50;;;;;;5084733;28;27406;-62
2021/05/31 01:28:36;;;;;;;4.85;2.30;;;14.60;65.70;;;;;;5084574;28;27677;-62
2021/05/31 01:31:35;;;;;;;6.80;2.58;;;14.60;65.60;;;;;;5084233;28;27352;-62
2021/05/31 01:34:21;;;;;;;4.68;2.15;;;14.50;65.70;;;;;;5084894;28;27452;-62
2021/05/31 01:37:13;;;;;;;3.75;2.28;;;14.40;65.80;;;;;;5084727;28;27463;-62
2021/05/31 01:40:03;;;;;;;3.90;2.42;;;14.40;66.10;;;;;;5084970;28;27417;-62
2021/05/31 01:42:47;;;;;;;3.13;2.55;;;14.30;66.10;;;;;;5084957;28;27826;-62
2021/05/31 01:45:32;;;;;;;3.63;2.17;;;14.20;66.50;;;;;;5098402;27;27501;-62
2021/05/31 01:48:16;;;;;;;2.58;2.08;;;14.20;66.60;;;;;;5095259;28;27415;-62
2021/05/31 01:51:01;;;;;;;4.03;2.38;;;14.20;66.70;;;;;;5084527;28;27421;-62
2021/05/31 01:53:46;;;;;;;3.67;2.40;;;14.10;66.30;;;;;;5083482;28;27429;-62
2021/05/31 01:56:30;;;;;;;3.97;2.20;;;14.00;66.70;;;;;;5084395;28;27412;-62
2021/05/31 01:59:16;;;;;;;4.72;2.13;;;14.00;66.80;;;;;;5083912;28;27423;-62
2021/05/31 02:02:01;;;;;;;7.28;2.45;;;14.00;66.70;;;;;;5083844;28;27407;-62
2021/05/31 02:04:46;;;;;;;5.18;2.63;;;13.90;66.80;;;;;;5083474;28;27868;-62
2021/05/31 02:07:30;;;;;;;4.30;2.42;;;13.90;67.40;;;;;;5084429;28;27423;-62
2021/05/31 02:10:15;;;;;;;3.47;2.33;;;13.80;67.10;;;;;;5084257;28;27501;-62
2021/05/31 02:13:00;;;;;;;2.83;2.03;;;13.70;66.50;;;;;;5083569;28;27423;-62
2021/05/31 02:15:58;;;;;;;3.55;2.40;;;13.70;67.10;;;;;;5083760;28;27427;-62
2021/05/31 02:18:49;;;;;;;5.20;2.45;;;13.70;66.80;;;;;;5069095;28;27473;-62
2021/05/31 02:21:34;;;;;;;4.38;2.35;;;13.60;67.20;;;;;;5083544;28;27501;-62
2021/05/31 02:24:19;;;;;;;5.93;2.50;;;13.60;67.10;;;;;;5097712;27;27365;-62
2021/05/31 02:27:03;;;;;;;3.13;2.20;;;13.50;66.60;;;;;;5083383;28;27402;-63
2021/05/31 02:29:48;;;;;;;5.47;2.30;;;13.50;66.80;;;;;;5083336;28;27407;-62
2021/05/31 02:32:33;;;;;;;3.35;2.65;;;13.40;66.50;;;;;;5079872;28;27396;-62
2021/05/31 02:35:17;;;;;;;3.35;2.42;;;13.40;67.10;;;;;;5084022;28;27469;-62
2021/05/31 02:38:02;;;;;;;4.30;2.45;;;13.40;67.30;;;;;;5065428;28;27414;-61
2021/05/31 02:40:47;;;;;;;3.00;2.47;;;13.30;67.20;;;;;;5082930;28;27319;-62
2021/05/31 02:43:32;;;;;;;2.63;2.25;;;13.20;67.10;;;;;;5083988;28;27348;-62
2021/05/31 02:46:16;;;;;;;3.95;2.42;;;13.20;67.50;;;;;;5083878;28;27353;-62
2021/05/31 02:49:00;;;;;;;3.45;2.40;;;13.10;67.50;;;;;;5083418;28;27374;-64
2021/05/31 02:51:45;;;;;;;3.03;2.33;;;13.10;67.50;;;;;;5083862;28;27392;-62
2021/05/31 02:54:29;;;;;;;3.85;2.20;;;13.00;67.60;;;;;;5065387;28;26932;-62
2021/05/31 02:57:14;;;;;;;3.35;2.42;;;13.00;68.00;;;;;;5083753;28;27443;-61
2021/05/31 02:59:58;;;;;;;5.40;2.47;;;13.00;68.00;;;;;;5083437;28;27427;-62
2021/05/31 03:02:43;;;;;;;5.00;2.10;;;12.90;67.80;;;;;;5079500;28;27455;-61
2021/05/31 03:05:29;;;;;;;3.47;2.70;;;12.90;67.90;;;;;;5083719;28;27470;-62
2021/05/31 03:08:13;;;;;;;3.13;2.50;;;12.80;67.90;;;;;;5083692;28;27419;-62
2021/05/31 03:10:58;;;;;;;3.03;2.30;;;12.80;67.90;;;;;;5082599;28;27493;-62
2021/05/31 03:13:42;;;;;;;3.03;2.20;;;12.70;68.20;;;;;;5083389;28;27437;-62
2021/05/31 03:16:27;;;;;;;3.75;2.70;;;12.70;68.40;;;;;;5111217;27;27477;-62
2021/05/31 03:19:12;;;;;;;3.83;2.35;;;12.70;68.20;;;;;;5083439;28;27403;-61
2021/05/31 03:21:56;;;;;;;3.17;2.53;;;12.60;68.50;;;;;;5083398;28;27423;-62
2021/05/31 03:24:41;;;;;;;2.63;2.40;;;12.50;68.30;;;;;;5083428;28;27434;-62
2021/05/31 03:27:25;;;;;;;2.90;2.13;;;12.50;68.20;;;;;;5080067;28;27391;-62
2021/05/31 03:30:11;;;;;;;3.38;2.42;;;12.50;68.10;;;;;;5083071;28;27545;-61
2021/05/31 03:32:56;;;;;;;3.15;2.45;;;12.40;68.30;;;;;;5083372;28;27458;-62
2021/05/31 03:35:41;;;;;;;3.80;2.50;;;12.40;68.50;;;;;;5083050;28;27529;-62
2021/05/31 03:38:25;;;;;;;2.55;2.15;;;12.40;68.40;;;;;;5083379;28;27405;-62
2021/05/31 03:41:10;;;;;;;4.43;3.03;;;12.30;68.40;;;;;;5086523;28;27465;-62
2021/05/31 03:43:54;;;;;;;3.20;2.90;;;12.30;68.80;;;;;;5086140;28;27641;-62
2021/05/31 03:46:38;;;;;;;6.80;3.78;;;12.20;68.40;;;;;;5086525;28;27435;-62
2021/05/31 03:49:23;;;;;;;5.45;2.58;;;12.20;68.90;;;;;;5071460;28;27408;-61
2021/05/31 03:52:08;;;;;;;3.13;2.72;;;12.20;69.00;;;;;;5082714;28;27366;-62
2021/05/31 03:54:52;;;;;;;3.05;2.55;;;12.10;68.90;;;;;;5086119;28;27407;-62
2021/05/31 03:57:37;;;;;;;6.53;2.78;;;12.10;68.90;;;;;;5082459;28;27348;-62
2021/05/31 04:00:23;;;;;;;3.90;2.45;;;12.10;69.20;;;;;;5086634;28;27331;-61
2021/05/31 04:03:07;;;;;;;4.88;3.00;;;12.10;69.00;;;;;;5086321;28;27375;-62
2021/05/31 04:11:59;;;;;;;3.22;2.45;;;12.00;69.90;;;;;;5085570;28;27420;-61
2021/05/31 04:14:43;;;;;;;3.80;2.85;;;12.00;69.70;;;;;;5084992;28;27607;-61
2021/05/31 04:17:28;;;;;;;2.92;2.58;;;12.00;69.70;;;;;;5085987;28;27417;-61
2021/05/31 04:20:13;;;;;;;5.72;2.75;;;12.00;69.60;;;;;;5067868;28;27553;-61
2021/05/31 04:22:58;;;;;;;5.78;2.60;;;12.00;69.70;;;;;;5082115;28;27329;-62
2021/05/31 04:25:42;;;;;;;3.72;2.50;;;12.00;69.90;;;;;;5086076;28;27486;-61
2021/05/31 04:28:27;;;;;;;6.60;2.70;;;12.00;70.30;;;;;;5085434;28;27480;-61
2021/05/31 04:31:11;;;;;;;4.63;2.80;;;12.00;70.20;;;;;;5085704;28;27401;-62
2021/05/31 04:33:55;;;;;;;5.22;2.35;;;11.90;70.10;;;;;;5085133;28;27429;-62
2021/05/31 04:36:42;;;;;;;3.53;2.15;;;11.90;70.30;;;;;;5085789;28;26937;-61
2021/05/31 04:39:27;;;;;;;3.28;2.22;;;11.90;70.60;;;;;;5098672;27;27512;-61
2021/05/31 04:42:11;;;;;;;2.67;2.15;;;11.90;70.30;;;;;;5085535;28;27416;-62
2021/05/31 04:44:56;;;;;;;3.10;2.40;;;11.90;70.60;;;;;;5085648;28;27427;-61
2021/05/31 04:47:40;;;;;;;3.25;2.17;;;11.90;70.60;;;;;;5085013;28;27017;-61
2021/05/31 04:50:26;;;;;;;5.43;2.60;;;11.90;71.10;;;;;;5084662;28;27445;-61
2021/05/31 04:53:10;;;;;;;4.13;2.58;;;11.90;71.00;;;;;;5084415;28;27470;-61
2021/05/31 04:55:56;;;;;;;3.35;2.60;;;11.90;71.00;;;;;;5085064;28;27537;-61
2021/05/31 04:58:41;;;;;;;3.78;2.88;;;11.90;71.30;;;;;;5081489;28;27367;-61
2021/05/31 05:01:25;;;;;;;4.95;2.78;;;11.80;71.40;;;;;;5085459;28;27493;-61
2021/05/31 05:04:09;;;;;;;4.55;2.90;;;11.90;71.40;;;;;;5085436;28;27536;-62
2021/05/31 05:06:54;;;;;;;2.42;2.17;;;11.80;71.60;;;;;;5084720;28;27550;-61
2021/05/31 05:09:39;;;;;;;3.30;2.70;;;11.90;71.70;;;;;;5085143;28;27382;-61
2021/05/31 05:12:24;;;;;;;5.22;2.75;;;11.90;71.70;;;;;;5085350;28;27351;-61
2021/05/31 05:15:08;;;;;;;4.00;2.85;;;11.90;71.90;;;;;;5081002;28;27340;-61
2021/05/31 05:17:53;;;;;;;3.92;3.03;;;11.90;71.90;;;;;;5085314;28;27418;-61
2021/05/31 05:20:38;;;;;;;4.22;2.75;;;11.90;71.70;;;;;;5066939;28;27410;-61
2021/05/31 05:23:22;;;;;;;4.68;3.13;;;12.00;71.60;;;;;;5085207;28;27365;-61
2021/05/31 05:26:07;;;;;;;3.60;3.13;;;12.00;72.40;;;;;;5084861;28;27426;-61
2021/05/31 05:28:51;;;;;;;4.40;3.50;;;12.00;72.80;;;;;;5083615;28;27417;-61
2021/05/31 05:31:37;;;;;;;4.57;3.17;;;12.00;72.20;;;;;;5085211;28;27347;-61
2021/05/31 05:34:23;;;;;;;4.32;2.90;;;12.00;72.60;;;;;;5081105;28;27533;-61
2021/05/31 05:37:15;;;;;;;5.25;2.97;;;12.10;72.90;;;;;;5085004;28;27380;-61
2021/05/31 05:46:24;;;;;;;6.28;2.97;;;12.20;73.20;;;;;;5080387;28;27447;-61
2021/05/31 05:49:08;;;;;;;4.88;3.35;;;12.30;73.30;;;;;;5083981;28;27390;-61
2021/05/31 05:51:53;;;;;;;4.32;3.25;;;12.40;73.30;;;;;;5084529;28;27426;-61
2021/05/31 05:54:38;;;;;;;5.82;3.78;;;12.60;73.00;;;;;;5083516;28;27337;-61
2021/05/31 05:57:23;;;;;;;7.65;3.67;;;12.80;73.80;;;;;;5084323;28;27340;-61
2021/05/31 06:00:16;;;;;;;5.68;3.45;;;13.00;72.40;;;;;;5084451;28;27414;-62
2021/05/31 06:03:02;;;;;;;4.70;3.47;;;13.20;71.10;;;;;;5083633;28;27328;-62
2021/05/31 06:05:47;;;;;;;6.30;3.42;;;13.40;69.00;;;;;;5083727;28;27342;-62
2021/05/31 06:08:32;;;;;;;7.10;2.97;;;13.60;68.90;;;;;;5080339;28;27401;-63
2021/05/31 06:11:16;;;;;;;6.50;4.13;;;13.90;70.40;;;;;;5084397;28;27422;-63
2021/05/31 06:14:00;;;;;;;4.90;3.70;;;14.00;69.40;;;;;;5080204;28;27431;-65
2021/05/31 06:16:45;;;;;;;4.40;3.78;;;14.20;71.20;;;;;;5084283;28;27372;-63
2021/05/31 06:19:30;;;;;;;5.18;3.78;;;14.40;73.20;;;;;;5084222;28;27408;-63
2021/05/31 06:22:15;;;;;;;6.20;4.40;;;14.60;69.80;;;;;;5083063;28;27336;-64
2021/05/31 06:24:59;;;;;;;4.97;3.95;;;14.80;69.70;;;;;;5084231;28;27445;-63
2021/05/31 06:27:44;;;;;;;9.10;4.53;;;15.00;69.80;;;;;;5083159;28;27529;-63
2021/05/31 06:30:29;;;;;;;7.10;4.00;;;15.20;72.00;;;;;;5080475;28;27861;-63
2021/05/31 06:33:14;;;;;;;6.30;3.80;;;15.40;71.80;;;;;;5083679;28;27489;-63
2021/05/31 06:36:01;;;;;;;6.05;3.83;;;15.60;70.80;;;;;;5079449;28;27490;-66
2021/05/31 06:38:46;;;;;;;6.25;3.80;;;15.80;70.20;;;;;;5083694;28;27379;-64
2021/05/31 06:41:30;;;;;;;6.10;3.33;;;16.00;70.00;;;;;;5083821;28;27959;-63
2021/05/31 06:44:22;;;;;;;4.50;2.85;;;16.10;70.20;;;;;;5083769;28;27430;-64
2021/05/31 06:47:13;;;;;;;4.22;2.95;;;16.30;69.70;;;;;;5068651;28;27395;-62
2021/05/31 06:49:58;;;;;;;4.25;3.40;;;16.50;71.00;;;;;;5081899;28;27404;-66
2021/05/31 06:52:42;;;;;;;4.38;3.15;;;16.70;73.00;;;;;;5081919;28;27863;-63
2021/05/31 06:55:27;;;;;;;5.53;2.47;;;16.90;72.00;;;;;;5081477;28;27440;-63
2021/05/31 06:58:12;;;;;;;2.95;2.60;;;17.10;73.10;;;;;;5081408;28;27611;-65
2021/05/31 07:00:56;;;;;;;3.70;2.88;;;17.20;70.30;;;;;;5081798;28;27447;-65
2021/05/31 07:03:41;;;;;;;4.32;2.92;;;17.40;67.30;;;;;;5081367;28;27442;-64
2021/05/31 07:06:26;;;;;;;4.57;3.00;;;17.50;65.80;;;;;;5081579;28;27549;-64
2021/05/31 07:09:11;;;;;;;4.47;2.40;;;17.70;65.20;;;;;;5082522;28;27437;-64
2021/05/31 07:11:55;;;;;;;2.65;2.13;;;17.80;64.70;;;;;;5083551;28;27409;-64
2021/05/31 07:14:41;;;;;;;2.65;1.98;;;18.00;62.90;;;;;;5085360;28;27400;-64
2021/05/31 07:17:27;;;;;;;2.80;2.50;;;18.10;62.60;;;;;;5083921;28;27409;-64
2021/05/31 07:20:12;;;;;;;11.88;3.95;;;18.30;63.10;;;;;;5101245;27;27406;-65
2021/05/31 07:22:57;;;;;;;3.15;2.25;;;18.50;62.90;;;;;;5087177;28;27337;-64
2021/05/31 07:25:42;;;;;;;2.88;2.03;;;18.80;64.60;;;;;;5087552;28;27320;-65
2021/05/31 07:28:26;;;;;;;3.80;2.10;;;19.00;62.80;;;;;;5087026;28;27387;-65
2021/05/31 07:31:11;;;;;;;3.75;2.05;;;19.20;61.00;;;;;;5087502;28;27440;-65
2021/05/31 07:33:55;;;;;;;2.50;2.20;;;19.30;59.90;;;;;;5087352;28;27375;-65
2021/05/31 07:36:40;;;;;;;3.05;2.55;;;19.50;59.40;;;;;;5086889;28;27442;-65
2021/05/31 07:39:24;;;;;;;2.35;1.70;;;19.70;57.50;;;;;;5087583;28;27403;-65
2021/05/31 07:42:09;;;;;;;2.03;1.83;;;19.90;57.10;;;;;;5087572;28;27443;-65
2021/05/31 07:44:54;;;;;;;5.93;2.28;;;20.00;58.50;;;;;;5087417;28;27404;-66
2021/05/31 07:47:38;;;;;;;3.25;2.17;;;20.20;58.40;;;;;;5083437;28;27955;-65
2021/05/31 07:50:22;;;;;;;3.10;1.90;;;20.30;57.20;;;;;;5086749;28;27640;-66
2021/05/31 07:53:07;;;;;;;4.47;1.90;;;20.50;56.30;;;;;;5087422;28;27458;-66
2021/05/31 07:55:51;;;;;;;2.30;1.70;;;20.70;54.70;;;;;;5086802;28;27541;-66
2021/05/31 07:58:36;;;;;;;2.03;1.80;;;20.90;57.30;;;;;;5086939;28;27942;-66
2021/05/31 08:01:20;;;;;;;2.45;2.00;;;21.20;55.70;;;;;;5087206;28;27399;-65
2021/05/31 08:04:06;;;;;;;2.63;1.77;;;21.40;54.00;;;;;;5086451;28;27508;-67
2021/05/31 08:06:51;;;;;;;3.67;2.00;;;21.60;55.10;;;;;;5087187;28;27445;-66
2021/05/31 08:09:36;;;;;;;4.13;1.50;;;21.80;54.60;;;;;;5086827;28;27502;-66
2021/05/31 08:12:21;;;;;;;1.83;1.60;;;22.10;52.40;;;;;;5085761;28;27498;-65
2021/05/31 08:15:06;;;;;;;4.45;1.85;;;22.30;52.50;;;;;;5086954;28;27407;-65
2021/05/31 08:17:50;;;;;;;5.18;1.85;;;22.40;52.30;;;;;;5086598;28;27419;-65
2021/05/31 08:20:35;;;;;;;5.68;1.70;;;22.60;53.00;;;;;;5087009;28;27435;-65
2021/05/31 08:23:19;;;;;;;2.15;1.85;;;22.80;51.50;;;;;;5087100;28;27378;-66
2021/05/31 08:26:04;;;;;;;2.72;1.90;;;23.00;52.20;;;;;;5086674;28;27343;-66
2021/05/31 08:28:49;;;;;;;2.13;1.80;;;23.20;53.70;;;;;;5099458;27;27418;-66
2021/05/31 08:31:34;;;;;;;1.98;1.55;;;23.50;54.50;;;;;;5086473;28;27381;-66
2021/05/31 08:34:18;;;;;;;2.17;1.73;;;23.70;52.30;;;;;;5086638;28;27434;-66
2021/05/31 08:37:03;;;;;;;3.38;1.55;;;23.80;51.80;;;;;;5086698;28;27411;-66
2021/05/31 08:39:49;;;;;;;3.90;1.63;;;24.00;50.50;;;;;;5086689;28;27375;-66
2021/05/31 08:42:37;;;;;;;5.90;2.47;;;24.00;50.90;;;;;;5086343;28;27885;-66
2021/05/31 08:45:24;;;;;;;2.10;1.45;;;24.10;48.50;;;;;;5082911;28;27430;-66
2021/05/31 08:48:10;;;;;;;2.53;2.05;;;24.20;51.10;;;;;;5086509;28;27470;-66
2021/05/31 08:50:55;;;;;;;1.92;1.50;;;24.40;49.90;;;;;;5086179;28;27465;-66
2021/05/31 08:53:43;;;;;;;6.05;1.50;;;24.50;49.00;;;;;;5086446;28;27458;-66
2021/05/31 08:56:28;;;;;;;3.85;1.50;;;24.60;50.70;;;;;;5086084;28;27406;-66
2021/05/31 08:59:12;;;;;;;1.65;1.55;;;24.70;51.20;;;;;;5082101;28;27387;-66
2021/05/31 09:01:57;;;;;;;2.70;1.75;;;24.80;51.30;;;;;;5086413;28;27320;-66
2021/05/31 09:04:47;;;;;;;2.58;1.60;;;25.00;51.00;;;;;;5085248;28;27337;-66
2021/05/31 09:07:32;;;;;;;1.92;1.58;;;25.10;47.50;;;;;;5085865;28;27415;-66
2021/05/31 09:10:17;;;;;;;2.70;1.52;;;25.10;46.80;;;;;;5085753;28;27410;-66
2021/05/31 09:13:03;;;;;;;4.75;1.80;;;25.20;48.80;;;;;;5086167;28;27408;-76
2021/05/31 09:15:51;;;;;;;4.72;1.30;;;25.20;36.80;;;;;;5085770;28;27981;-71
2021/05/31 09:18:37;;;;;;;4.25;2.00;;;25.30;34.90;;;;;;5099984;27;27375;-68
2021/05/31 09:21:36;;;;;;;5.18;1.65;;;25.30;32.90;;;;;;5086068;28;27368;-68
2021/05/31 09:24:24;;;;;;;4.20;1.75;;;25.30;32.90;;;;;;5085616;28;27462;-67
2021/05/31 09:27:16;;;;;;;5.07;1.35;;;25.30;32.00;;;;;;5085293;28;27672;-67
2021/05/31 09:30:05;;;;;;;3.17;1.70;;;25.30;31.10;;;;;;5085042;28;27408;-67
2021/05/31 09:32:51;;;;;;;2.85;1.58;;;25.30;34.70;;;;;;5085564;28;27482;-68
2021/05/31 09:35:41;;;;;;;10.07;1.88;;;25.20;35.20;;;;;;5085514;28;27475;-68
2021/05/31 09:38:26;;;;;;;25.83;2.55;;;25.20;35.20;;;;;;5084564;28;27471;-66
2021/05/31 09:41:10;;;;;;;5.95;1.58;;;25.10;36.40;;;;;;5085619;28;27393;-67
2021/05/31 09:43:59;;;;;;;1.85;1.48;;;25.10;35.20;;;;;;5099386;27;27504;-68
2021/05/31 09:46:47;;;;;;;2.88;1.58;;;25.00;36.10;;;;;;5081540;28;27530;-66
2021/05/31 09:49:34;;;;;;;3.85;1.60;;;25.10;35.30;;;;;;5085467;28;27372;-68
2021/05/31 09:52:18;;;;;;;2.40;1.77;;;25.20;36.60;;;;;;5084462;28;27369;-68
2021/05/31 09:55:06;;;;;;;5.95;1.70;;;25.30;34.70;;;;;;5085306;28;27422;-70
2021/05/31 09:57:50;;;;;;;8.23;1.70;;;25.40;33.20;;;;;;5085375;28;27408;-68
2021/05/31 10:00:35;;;;;;;6.85;1.70;;;25.40;35.20;;;;;;5084552;28;27400;-68
2021/05/31 10:03:27;;;;;;;4.53;1.65;;;25.50;36.10;;;;;;5085233;28;27489;-67
2021/05/31 10:08:59;;;;;;;5.00;1.50;;;25.50;36.20;;;;;;5085202;28;27321;-70
2021/05/31 10:11:45;;;;;;;6.75;1.80;;;25.60;35.50;;;;;;5085053;28;27391;-70
2021/05/31 10:14:30;;;;;;;3.58;1.60;;;25.70;32.50;;;;;;5085048;28;27456;-70
2021/05/31 10:17:14;;;;;;;3.97;1.75;;;25.70;32.80;;;;;;5084446;28;27378;-71
2021/05/31 10:20:02;;;;;;;6.22;2.10;;;25.70;33.80;;;;;;5084824;28;27399;-71
2021/05/31 10:22:46;;;;;;;5.68;2.10;;;25.70;35.00;;;;;;5084653;28;27407;-71
2021/05/31 10:25:31;;;;;;;3.88;1.83;;;25.80;32.90;;;;;;5084637;28;27407;-70
2021/05/31 10:28:17;;;;;;;3.78;1.83;;;25.80;33.80;;;;;;5083195;28;27209;-73
2021/05/31 10:31:06;;;;;;;2.60;1.83;;;25.80;35.20;;;;;;5084150;28;27449;-70
2021/05/31 10:34:00;;;;;;;4.00;1.67;;;25.80;34.10;;;;;;5084372;28;27951;-71
2021/05/31 10:36:51;;;;;;;9.23;1.70;;;25.80;32.60;;;;;;5083751;28;27403;-70
2021/05/31 10:39:35;;;;;;;3.33;1.70;;;25.80;32.20;;;;;;5083860;28;27485;-70
2021/05/31 10:42:22;;;;;;;3.20;1.70;;;25.90;34.10;;;;;;5084795;28;27473;-70
2021/05/31 10:45:25;;;;;;;29.10;4.25;;;25.90;32.40;;;;;;5083664;28;27979;-68
2021/05/31 10:48:20;;;;;;;5.07;1.85;;;25.90;44.20;;;;;;5080287;28;27470;-71
2021/05/31 10:51:18;;;;;;;7.28;2.05;;;25.40;40.30;;;;;;5080391;28;27432;-71
2021/05/31 10:54:08;;;;;;;3.67;1.98;;;25.30;39.40;;;;;;5084135;28;27503;-70
2021/05/31 10:57:07;;;;;;;8.35;1.95;;;25.30;38.10;;;;;;5084198;28;27973;-70
2021/05/31 10:59:52;;;;;;;6.25;2.13;;;25.40;36.90;;;;;;5084022;28;27457;-69
2021/05/31 11:02:36;;;;;;;3.42;2.13;;;25.50;38.50;;;;;;5084054;28;27472;-70
2021/05/31 11:05:20;;;;;;;2.80;2.00;;;25.50;36.20;;;;;;5084342;28;27439;-69
2021/05/31 11:08:07;;;;;;;4.03;1.90;;;25.60;37.20;;;;;;5080416;28;27329;-69
2021/05/31 11:10:59;;;;;;;1.65;1.50;;;25.60;35.80;;;;;;5069213;28;27603;-69
2021/05/31 11:13:49;;;;;;;1.52;1.42;;;25.60;39.00;;;;;;5084075;28;27323;-70
2021/05/31 11:16:34;;;;;;;2.03;1.85;;;25.70;40.70;;;;;;5084251;28;27320;-70
2021/05/31 11:19:34;;;;;;;2.40;1.90;;;26.00;43.10;;;;;;5084190;28;27449;-70
2021/05/31 11:22:23;;;;;;;1.73;1.60;;;26.20;43.50;;;;;;5084206;28;27305;-69
2021/05/31 11:25:09;;;;;;;3.80;2.00;;;26.30;45.90;;;;;;5084027;28;27466;-70
2021/05/31 11:28:06;;;;;;;3.97;1.95;;;26.40;46.20;;;;;;5083250;28;27454;-69
2021/05/31 11:30:50;;;;;;;2.88;1.88;;;26.30;41.10;;;;;;5084026;28;27857;-70
2021/05/31 11:33:37;;;;;;;5.97;1.92;;;26.20;41.10;;;;;;5083812;28;27464;-69
2021/05/31 11:36:36;;;;;;;8.45;1.98;;;26.20;41.50;;;;;;5097534;27;27414;-70
2021/05/31 11:39:21;;;;;;;5.20;1.80;;;26.20;45.70;;;;;;5083688;28;27388;-70
2021/05/31 11:42:05;;;;;;;3.13;1.90;;;26.20;50.70;;;;;;5083914;28;27472;-70
2021/05/31 11:44:51;;;;;;;3.40;1.90;;;26.30;51.90;;;;;;5083057;28;27527;-70
2021/05/31 11:47:36;;;;;;;3.88;1.85;;;26.50;49.60;;;;;;5083621;28;27439;-70
2021/05/31 11:50:21;;;;;;;3.30;1.75;;;26.60;53.00;;;;;;5083710;28;27327;-70
2021/05/31 11:53:05;;;;;;;1.65;1.52;;;26.80;50.30;;;;;;5083479;28;27392;-71
2021/05/31 11:55:50;;;;;;;3.60;1.90;;;26.80;52.20;;;;;;5083204;28;27512;-71
2021/05/31 11:58:34;;;;;;;1.90;1.70;;;26.80;54.90;;;;;;5083790;28;27398;-71
2021/05/31 12:01:18;;;;;;;4.05;2.00;;;26.90;54.20;;;;;;5084908;28;27327;-71
2021/05/31 12:04:03;;;;;;;1.85;1.60;;;27.00;55.20;;;;;;5086871;28;27411;-71
2021/05/31 12:07:06;;;;;;;1.83;1.73;;;26.90;52.90;;;;;;5087106;28;27338;-71
2021/05/31 12:09:52;;;;;;;7.03;1.98;;;26.90;59.40;;;;;;5086857;28;27336;-71
2021/05/31 12:12:37;;;;;;;2.00;1.65;;;26.90;54.40;;;;;;5087090;28;27309;-71
2021/05/31 12:15:21;;;;;;;4.40;1.70;;;26.90;57.70;;;;;;5086858;28;27363;-71
2021/05/31 12:18:16;;;;;;;2.08;1.88;;;26.80;58.20;;;;;;5082963;28;27362;-71
2021/05/31 12:21:01;;;;;;;1.70;1.60;;;26.80;59.40;;;;;;5087041;28;27391;-71
2021/05/31 12:23:52;;;;;;;3.08;1.73;;;26.80;61.70;;;;;;5086907;28;27320;-71
2021/05/31 12:26:40;;;;;;;2.33;1.60;;;26.70;58.80;;;;;;5086869;28;27388;-71
2021/05/31 12:29:38;;;;;;;3.38;2.00;;;26.80;61.00;;;;;;5086499;28;27503;-71
2021/05/31 12:32:24;;;;;;;1.70;1.60;;;26.70;62.90;;;;;;5086862;28;27403;-71
2021/05/31 12:35:09;;;;;;;2.35;1.90;;;26.70;57.90;;;;;;5082334;28;27533;-71
2021/05/31 12:37:54;;;;;;;1.85;1.67;;;26.70;62.20;;;;;;5086571;28;27345;-71
2021/05/31 12:40:41;;;;;;;2.20;1.80;;;26.70;63.20;;;;;;5085867;28;27316;-71
2021/05/31 12:43:35;;;;;;;3.50;1.60;;;26.70;64.40;;;;;;5086701;28;27461;-72
2021/05/31 12:46:20;;;;;;;4.95;1.60;;;26.70;61.90;;;;;;5086626;28;27339;-71
2021/05/31 12:49:05;;;;;;;3.22;1.70;;;26.60;60.80;;;;;;5086216;28;27413;-71
2021/05/31 12:51:53;;;;;;;1.98;1.77;;;26.60;59.30;;;;;;5085613;28;27574;-72
2021/05/31 12:54:38;;;;;;;2.85;1.70;;;26.50;59.60;;;;;;5086105;28;27422;-71
2021/05/31 12:57:23;;;;;;;3.78;1.73;;;26.50;64.20;;;;;;5086171;28;27427;-71
2021/05/31 13:00:21;;;;;;;3.67;1.77;;;26.40;59.00;;;;;;5086271;28;27472;-67
2021/05/31 13:03:05;;;;;;;3.78;1.88;;;26.30;52.10;;;;;;5086297;28;27350;-68
2021/05/31 13:05:51;;;;;;;2.15;1.60;;;26.10;42.30;;;;;;5086244;28;27495;-68
2021/05/31 13:08:39;;;;;;;2.65;1.95;;;25.90;41.90;;;;;;5086200;28;27390;-69
2021/05/31 13:11:23;;;;;;;2.95;1.70;;;25.80;49.80;;;;;;5085523;28;27341;-68
2021/05/31 13:14:24;;;;;;;1.55;1.45;;;25.70;52.70;;;;;;5085869;28;27411;-68
2021/05/31 13:17:10;;;;;;;3.08;1.90;;;25.60;53.90;;;;;;5085606;28;27400;-68
2021/05/31 13:20:05;;;;;;;2.75;1.80;;;25.50;54.00;;;;;;5085773;28;27454;-68
2021/05/31 13:22:57;;;;;;;2.25;1.85;;;25.40;56.40;;;;;;5085608;28;27467;-69
2021/05/31 13:25:50;;;;;;;4.57;1.60;;;25.40;52.00;;;;;;5085608;28;27450;-68
2021/05/31 13:28:35;;;;;;;2.70;1.70;;;25.30;60.30;;;;;;5085071;28;27057;-69
2021/05/31 13:31:20;;;;;;;2.05;1.85;;;25.40;63.40;;;;;;5085898;28;27389;-69
2021/05/31 13:34:04;;;;;;;5.30;1.70;;;25.50;67.50;;;;;;5085503;28;27857;-69
2021/05/31 13:36:48;;;;;;;2.85;1.63;;;25.50;58.30;;;;;;5099476;27;27404;-69
2021/05/31 13:39:33;;;;;;;7.57;2.10;;;25.60;65.90;;;;;;5085039;28;27410;-69
2021/05/31 13:42:19;;;;;;;1.92;1.60;;;25.70;58.50;;;;;;5084767;28;27631;-69
2021/05/31 13:45:08;;;;;;;3.95;1.65;;;25.70;60.30;;;;;;5084767;28;27390;-69
2021/05/31 13:47:52;;;;;;;2.65;1.60;;;25.60;55.40;;;;;;5085345;28;27417;-69
2021/05/31 13:50:38;;;;;;;4.43;2.00;;;25.60;58.80;;;;;;5085334;28;27456;-69
2021/05/31 13:53:23;;;;;;;3.85;1.50;;;25.50;53.40;;;;;;5085488;28;27403;-69
2021/05/31 13:56:07;;;;;;;1.38;1.27;;;25.50;62.80;;;;;;5084827;28;27449;-69
2021/05/31 13:58:51;;;;;;;2.50;1.50;;;25.50;61.00;;;;;;5085137;28;27458;-69
2021/05/31 14:01:36;;;;;;;4.25;1.60;;;25.50;62.00;;;;;;5085418;28;27533;-68
2021/05/31 14:04:20;;;;;;;5.97;1.55;;;25.50;54.50;;;;;;5085010;28;27453;-69
2021/05/31 14:07:05;;;;;;;2.22;1.80;;;25.50;56.20;;;;;;5085247;28;27857;-69
2021/05/31 14:09:49;;;;;;;2.58;1.95;;;25.60;60.20;;;;;;5084428;28;27384;-69
2021/05/31 14:12:34;;;;;;;2.72;1.65;;;25.50;58.30;;;;;;5084588;28;27376;-69
2021/05/31 14:15:19;;;;;;;1.90;1.50;;;25.50;51.30;;;;;;5084977;28;27333;-69
2021/05/31 14:18:04;;;;;;;2.75;1.75;;;25.50;54.50;;;;;;5084807;28;27340;-69
2021/05/31 14:20:49;;;;;;;2.53;1.50;;;25.40;55.70;;;;;;5084757;28;27499;-69
2021/05/31 14:23:34;;;;;;;3.33;1.77;;;25.40;54.60;;;;;;5084545;28;27321;-69
2021/05/31 14:26:19;;;;;;;5.25;1.63;;;25.40;53.40;;;;;;5084778;28;27389;-69
2021/05/31 14:29:03;;;;;;;1.85;1.50;;;25.40;59.60;;;;;;5084876;28;27374;-68
2021/05/31 14:31:48;;;;;;;2.35;1.58;;;25.40;58.10;;;;;;5084700;28;27343;-69
2021/05/31 14:34:33;;;;;;;4.15;1.52;;;25.40;57.50;;;;;;5084569;28;27319;-69
2021/05/31 14:37:17;;;;;;;3.08;1.98;;;25.40;58.40;;;;;;5084535;28;27348;-69
2021/05/31 14:40:04;;;;;;;1.90;1.80;;;25.50;53.60;;;;;;5084446;28;27367;-69